createdAt,value
2018-07-21T00:00:57.059Z,15.80
2018-07-21T00:03:25.287Z,15.90
2018-07-21T00:05:53.507Z,15.80
2018-07-21T00:08:21.739Z,15.80
2018-07-21T00:10:49.967Z,15.70
2018-07-21T00:13:18.180Z,15.70
2018-07-21T00:15:46.409Z,15.70
2018-07-21T00:18:14.628Z,15.70
2018-07-21T00:20:42.856Z,15.70
2018-07-21T00:23:11.083Z,15.60
2018-07-21T00:25:39.309Z,15.60
2018-07-21T00:28:07.561Z,15.60
2018-07-21T00:30:35.774Z,15.60
2018-07-21T00:33:03.994Z,15.60
2018-07-21T00:35:32.203Z,15.60
2018-07-21T00:38:00.411Z,15.60
2018-07-21T00:40:28.801Z,15.60
2018-07-21T00:42:57.016Z,15.60
2018-07-21T00:45:25.237Z,15.60
2018-07-21T00:47:53.470Z,15.60
2018-07-21T00:50:21.721Z,15.60
2018-07-21T00:52:49.941Z,15.50
2018-07-21T00:55:18.138Z,15.50
2018-07-21T00:57:46.377Z,15.40
2018-07-21T01:00:14.604Z,15.40
2018-07-21T01:02:42.812Z,15.40
2018-07-21T01:05:11.027Z,15.40
2018-07-21T01:07:39.231Z,15.40
2018-07-21T01:10:07.787Z,15.40
2018-07-21T01:12:36.501Z,15.40
2018-07-21T01:15:05.868Z,15.40
2018-07-21T01:17:34.089Z,15.40
2018-07-21T01:20:02.356Z,15.50
2018-07-21T01:22:30.592Z,15.50
2018-07-21T01:24:58.832Z,15.60
2018-07-21T01:27:27.074Z,15.60
2018-07-21T01:29:55.294Z,15.70
2018-07-21T01:32:23.666Z,15.70
2018-07-21T01:34:51.881Z,15.70
2018-07-21T01:37:20.111Z,15.80
2018-07-21T01:39:48.339Z,15.80
2018-07-21T01:42:16.529Z,15.70
2018-07-21T01:44:44.775Z,15.80
2018-07-21T01:47:13.086Z,15.70
2018-07-21T01:49:41.386Z,15.70
2018-07-21T01:55:20.274Z,15.80
2018-07-21T01:57:48.716Z,15.80
2018-07-21T02:00:17.072Z,15.80
2018-07-21T02:02:45.456Z,15.80
2018-07-21T02:05:13.885Z,15.80
2018-07-21T02:07:42.327Z,15.80
2018-07-21T02:10:10.813Z,15.80
2018-07-21T02:12:39.233Z,15.90
2018-07-21T02:15:07.706Z,15.90
2018-07-21T02:17:36.195Z,15.90
2018-07-21T02:20:04.669Z,15.90
2018-07-21T02:22:33.035Z,16.00
2018-07-21T02:25:01.504Z,16.00
2018-07-21T02:27:29.819Z,16.00
2018-07-21T02:29:58.224Z,16.10
2018-07-21T02:32:26.591Z,16.10
2018-07-21T02:34:55.169Z,16.10
2018-07-21T02:37:23.584Z,16.20
2018-07-21T02:39:51.991Z,16.20
2018-07-21T02:42:20.359Z,16.20
2018-07-21T02:44:48.765Z,16.20
2018-07-21T02:47:17.091Z,16.30
2018-07-21T02:49:45.407Z,16.30
2018-07-21T02:52:13.657Z,16.30
2018-07-21T02:54:42.194Z,16.30
2018-07-21T02:57:10.531Z,16.40
2018-07-21T02:59:38.912Z,16.40
2018-07-21T03:02:07.240Z,16.40
2018-07-21T03:04:35.484Z,16.40
2018-07-21T03:09:38.329Z,16.50
2018-07-21T03:12:06.305Z,16.50
2018-07-21T03:14:34.563Z,16.50
2018-07-21T03:17:02.765Z,16.50
2018-07-21T03:19:30.970Z,16.50
2018-07-21T03:21:59.151Z,16.50
2018-07-21T03:24:27.361Z,16.50
2018-07-21T03:26:55.595Z,16.50
2018-07-21T03:29:23.811Z,16.50
2018-07-21T03:31:52.036Z,16.60
2018-07-21T03:34:20.281Z,16.60
2018-07-21T03:36:48.466Z,16.60
2018-07-21T03:39:16.648Z,16.50
2018-07-21T03:41:44.826Z,16.60
2018-07-21T03:44:13.020Z,16.60
2018-07-21T03:46:41.219Z,16.60
2018-07-21T03:49:09.455Z,16.60
2018-07-21T03:51:37.637Z,16.50
2018-07-21T03:54:05.856Z,16.50
2018-07-21T03:56:34.111Z,16.50
2018-07-21T03:59:02.317Z,16.50
2018-07-21T04:01:30.532Z,16.50
2018-07-21T04:03:58.740Z,16.50
2018-07-21T04:06:27.001Z,16.50
2018-07-21T04:08:55.201Z,16.50
2018-07-21T04:11:23.364Z,16.50
2018-07-21T04:13:51.582Z,16.50
2018-07-21T04:16:19.845Z,16.60
2018-07-21T04:18:48.036Z,16.60
2018-07-21T04:21:16.272Z,16.60
2018-07-21T04:23:44.522Z,16.60
2018-07-21T04:26:12.852Z,16.70
2018-07-21T04:28:41.050Z,16.70
2018-07-21T04:31:09.249Z,16.70
2018-07-21T04:33:37.514Z,16.70
2018-07-21T04:36:05.907Z,16.70
2018-07-21T04:38:34.168Z,16.70
2018-07-21T04:41:02.424Z,16.70
2018-07-21T04:43:30.734Z,16.70
2018-07-21T04:45:59.184Z,16.70
2018-07-21T04:48:27.367Z,16.70
2018-07-21T04:50:55.644Z,16.80
2018-07-21T04:53:23.948Z,16.80
2018-07-21T04:55:52.195Z,16.80
2018-07-21T04:58:20.400Z,16.80
2018-07-21T05:00:48.690Z,16.80
2018-07-21T05:03:17.494Z,16.80
2018-07-21T05:05:45.703Z,16.80
2018-07-21T05:08:13.923Z,16.90
2018-07-21T05:10:42.111Z,16.90
2018-07-21T05:13:11.514Z,16.90
2018-07-21T05:15:39.756Z,16.90
2018-07-21T05:18:08.117Z,16.90
2018-07-21T05:20:36.312Z,16.90
2018-07-21T05:23:04.562Z,17.00
2018-07-21T05:25:32.827Z,17.00
2018-07-21T05:28:01.032Z,17.00
2018-07-21T05:30:29.463Z,17.10
2018-07-21T05:32:57.684Z,17.20
2018-07-21T05:35:26.007Z,17.20
2018-07-21T05:37:54.431Z,17.30
2018-07-21T05:40:22.732Z,17.40
2018-07-21T05:42:50.963Z,17.40
2018-07-21T05:45:19.176Z,17.50
2018-07-21T05:47:47.362Z,17.60
2018-07-21T05:50:15.589Z,17.70
2018-07-21T05:52:43.783Z,17.70
2018-07-21T05:55:11.950Z,17.80
2018-07-21T05:57:40.167Z,17.90
2018-07-21T06:00:10.407Z,18.00
2018-07-21T06:02:38.654Z,18.00
2018-07-21T06:05:07.060Z,18.10
2018-07-21T06:07:35.238Z,18.10
2018-07-21T06:10:03.472Z,18.20
2018-07-21T06:12:31.656Z,18.30
2018-07-21T06:14:59.831Z,18.40
2018-07-21T06:17:28.027Z,18.50
2018-07-21T06:19:56.187Z,18.50
2018-07-21T06:22:24.398Z,18.50
2018-07-21T06:24:52.572Z,18.50
2018-07-21T06:27:20.732Z,18.50
2018-07-21T06:29:48.905Z,18.60
2018-07-21T06:32:17.058Z,18.60
2018-07-21T06:34:45.245Z,18.70
2018-07-21T06:37:13.407Z,18.80
2018-07-21T06:39:41.591Z,18.90
2018-07-21T06:42:09.777Z,19.00
2018-07-21T06:44:38.003Z,19.10
2018-07-21T06:47:06.291Z,19.20
2018-07-21T06:49:34.482Z,19.20
2018-07-21T06:52:02.660Z,19.30
2018-07-21T06:54:30.876Z,19.40
2018-07-21T06:56:59.031Z,19.50
2018-07-21T06:59:28.877Z,19.50
2018-07-21T07:01:57.167Z,19.70
2018-07-21T07:04:25.371Z,19.80
2018-07-21T07:06:53.559Z,19.80
2018-07-21T07:09:21.840Z,20.00
2018-07-21T07:11:49.992Z,20.00
2018-07-21T07:14:18.355Z,20.10
2018-07-21T07:16:46.535Z,20.20
2018-07-21T07:19:14.715Z,20.30
2018-07-21T07:21:42.887Z,20.40
2018-07-21T07:24:11.091Z,20.50
2018-07-21T07:26:39.253Z,20.50
2018-07-21T07:29:07.438Z,20.60
2018-07-21T07:31:38.089Z,20.70
2018-07-21T07:34:06.331Z,20.90
2018-07-21T07:36:34.507Z,21.00
2018-07-21T07:39:02.711Z,21.00
2018-07-21T07:41:30.882Z,21.00
2018-07-21T07:43:59.052Z,21.10
2018-07-21T07:46:27.240Z,21.20
2018-07-21T07:48:55.419Z,21.40
2018-07-21T07:51:23.614Z,21.50
2018-07-21T07:53:51.799Z,21.70
2018-07-21T07:56:19.960Z,21.70
2018-07-21T07:58:48.135Z,21.80
2018-07-21T08:01:16.433Z,21.90
2018-07-21T08:03:44.663Z,21.80
2018-07-21T08:06:12.831Z,21.80
2018-07-21T08:08:41.063Z,21.70
2018-07-21T08:11:09.347Z,21.50
2018-07-21T08:13:37.589Z,21.50
2018-07-21T08:16:05.749Z,21.30
2018-07-21T08:18:33.940Z,21.20
2018-07-21T08:21:02.132Z,21.20
2018-07-21T08:23:30.346Z,21.10
2018-07-21T08:25:58.536Z,21.00
2018-07-21T08:28:26.844Z,20.90
2018-07-21T08:30:55.008Z,20.80
2018-07-21T08:33:23.202Z,20.80
2018-07-21T08:35:51.525Z,20.70
2018-07-21T08:38:19.676Z,20.70
2018-07-21T08:40:47.983Z,20.70
2018-07-21T08:43:16.176Z,20.70
2018-07-21T08:45:44.370Z,20.70
2018-07-21T08:48:12.576Z,20.70
2018-07-21T08:50:40.716Z,20.70
2018-07-21T08:53:09.608Z,20.80
2018-07-21T08:55:38.456Z,20.80
2018-07-21T08:58:06.685Z,20.90
2018-07-21T09:00:35.250Z,21.00
2018-07-21T09:03:04.088Z,21.10
2018-07-21T09:05:32.847Z,21.20
2018-07-21T09:08:01.243Z,21.20
2018-07-21T09:10:29.880Z,21.20
2018-07-21T09:12:58.061Z,21.20
2018-07-21T09:15:26.219Z,21.20
2018-07-21T09:17:54.627Z,21.20
2018-07-21T09:20:22.882Z,21.20
2018-07-21T09:22:51.807Z,21.10
2018-07-21T09:25:19.998Z,21.00
2018-07-21T09:27:48.204Z,20.90
2018-07-21T09:30:17.855Z,20.90
2018-07-21T09:32:46.232Z,20.80
2018-07-21T09:35:14.455Z,20.80
2018-07-21T09:37:42.631Z,20.60
2018-07-21T09:40:10.811Z,20.60
2018-07-21T09:42:39.375Z,20.60
2018-07-21T09:45:07.530Z,20.60
2018-07-21T09:47:35.759Z,20.50
2018-07-21T09:50:04.365Z,20.50
2018-07-21T09:52:32.517Z,20.50
2018-07-21T09:55:00.950Z,20.60
2018-07-21T09:57:29.136Z,20.60
2018-07-21T09:59:57.330Z,20.60
2018-07-21T10:02:25.742Z,20.70
2018-07-21T10:04:54.267Z,20.70
2018-07-21T10:07:22.430Z,20.90
2018-07-21T10:09:50.583Z,21.10
2018-07-21T10:12:18.820Z,21.20
2018-07-21T10:14:47.296Z,21.30
2018-07-21T10:17:15.758Z,21.40
2018-07-21T10:19:43.979Z,21.50
2018-07-21T10:22:12.208Z,21.50
2018-07-21T10:24:45.756Z,21.50
2018-07-21T10:27:15.078Z,21.70
2018-07-21T10:29:43.318Z,21.80
2018-07-21T10:32:11.717Z,21.90
2018-07-21T10:34:39.904Z,21.90
2018-07-21T10:37:08.067Z,22.00
2018-07-21T10:39:36.331Z,22.00
2018-07-21T10:42:04.491Z,22.00
2018-07-21T10:44:32.728Z,22.00
2018-07-21T10:47:00.839Z,21.90
2018-07-21T10:49:29.028Z,21.80
2018-07-21T10:51:57.222Z,21.70
2018-07-21T10:54:25.536Z,21.60
2018-07-21T10:56:53.780Z,21.40
2018-07-21T10:59:22.191Z,21.20
2018-07-21T11:01:50.346Z,21.10
2018-07-21T11:04:18.595Z,20.80
2018-07-21T11:06:46.780Z,20.70
2018-07-21T11:09:14.990Z,20.50
2018-07-21T11:11:43.168Z,20.20
2018-07-21T11:14:11.351Z,20.00
2018-07-21T11:16:39.531Z,19.80
2018-07-21T11:19:07.725Z,19.70
2018-07-21T11:21:35.948Z,19.70
2018-07-21T11:24:04.138Z,19.70
2018-07-21T11:26:32.424Z,19.80
2018-07-21T11:29:00.723Z,19.90
2018-07-21T11:31:28.930Z,19.90
2018-07-21T11:33:57.152Z,19.90
2018-07-21T11:36:25.605Z,19.80
2018-07-21T11:38:53.862Z,19.80
2018-07-21T11:41:22.056Z,19.90
2018-07-21T11:43:50.226Z,20.00
2018-07-21T11:46:18.419Z,20.10
2018-07-21T11:48:46.712Z,20.30
2018-07-21T11:51:15.053Z,20.40
2018-07-21T11:53:43.275Z,20.60
2018-07-21T11:56:11.504Z,20.80
2018-07-21T11:58:39.933Z,21.10
2018-07-21T12:01:08.367Z,21.20
2018-07-21T12:03:36.635Z,21.50
2018-07-21T12:06:05.514Z,21.70
2018-07-21T12:08:33.704Z,21.90
2018-07-21T12:11:01.866Z,22.30
2018-07-21T12:13:30.153Z,22.80
2018-07-21T12:15:58.284Z,23.20
2018-07-21T12:18:26.459Z,23.50
2018-07-21T12:20:54.619Z,23.70
2018-07-21T12:23:22.776Z,23.80
2018-07-21T12:25:50.983Z,24.10
2018-07-21T12:28:19.164Z,24.40
2018-07-21T12:30:47.359Z,24.60
2018-07-21T12:33:15.659Z,24.60
2018-07-21T12:35:43.833Z,24.60
2018-07-21T12:38:12.086Z,24.60
2018-07-21T12:40:40.240Z,24.50
2018-07-21T12:43:08.638Z,24.60
2018-07-21T12:45:36.813Z,24.70
2018-07-21T12:48:05.009Z,24.50
2018-07-21T12:50:33.257Z,24.30
2018-07-21T12:53:01.578Z,24.30
2018-07-21T12:55:29.796Z,24.20
2018-07-21T12:57:57.972Z,24.20
2018-07-21T13:00:26.118Z,24.00
2018-07-21T13:02:54.419Z,23.80
2018-07-21T13:05:22.626Z,23.60
2018-07-21T13:07:50.784Z,23.40
2018-07-21T13:10:18.987Z,23.30
2018-07-21T13:12:47.152Z,23.20
2018-07-21T13:15:15.337Z,23.30
2018-07-21T13:17:43.522Z,23.30
2018-07-21T13:20:11.687Z,23.50
2018-07-21T13:22:39.857Z,23.60
2018-07-21T13:25:08.024Z,23.70
2018-07-21T13:27:36.227Z,23.70
2018-07-21T13:30:05.615Z,23.60
2018-07-21T13:32:33.817Z,23.60
2018-07-21T13:35:01.980Z,23.50
2018-07-21T13:37:30.147Z,23.50
2018-07-21T13:39:58.374Z,23.30
2018-07-21T13:42:26.573Z,23.10
2018-07-21T13:44:54.780Z,23.00
2018-07-21T13:47:22.981Z,22.80
2018-07-21T13:49:51.160Z,22.60
2018-07-21T13:52:19.412Z,22.30
2018-07-21T13:54:47.642Z,22.20
2018-07-21T13:57:15.842Z,22.10
2018-07-21T13:59:44.007Z,22.10
2018-07-21T14:02:12.248Z,22.00
2018-07-21T14:04:40.481Z,22.10
2018-07-21T14:07:08.635Z,22.20
2018-07-21T14:09:36.817Z,22.20
2018-07-21T14:12:05.041Z,22.30
2018-07-21T14:14:33.202Z,22.30
2018-07-21T14:17:01.407Z,22.20
2018-07-21T14:19:32.950Z,22.20
2018-07-21T14:22:01.210Z,22.10
2018-07-21T14:24:29.387Z,22.00
2018-07-21T14:26:57.571Z,21.90
2018-07-21T14:29:25.727Z,21.80
2018-07-21T14:31:54.111Z,21.90
2018-07-21T14:34:22.267Z,22.00
2018-07-21T14:36:50.432Z,22.10
2018-07-21T14:39:18.621Z,22.20
2018-07-21T14:41:46.809Z,22.30
2018-07-21T14:44:14.947Z,22.30
2018-07-21T14:46:43.113Z,22.30
2018-07-21T14:49:11.304Z,22.30
2018-07-21T14:51:39.493Z,22.30
2018-07-21T14:54:07.680Z,22.40
2018-07-21T14:56:35.855Z,22.50
2018-07-21T14:59:04.074Z,22.60
2018-07-21T15:01:32.253Z,22.70
2018-07-21T15:04:00.400Z,22.70
2018-07-21T15:06:28.547Z,22.60
2018-07-21T15:08:56.703Z,22.50
2018-07-21T15:11:24.930Z,22.30
2018-07-21T15:13:53.123Z,22.10
2018-07-21T15:16:21.283Z,21.90
2018-07-21T15:18:49.453Z,21.60
2018-07-21T15:21:17.602Z,21.40
2018-07-21T15:23:45.766Z,21.30
2018-07-21T15:26:14.204Z,21.30
2018-07-21T15:28:42.355Z,21.20
2018-07-21T15:31:10.520Z,21.30
2018-07-21T15:33:38.696Z,21.30
2018-07-21T15:36:06.855Z,21.40
2018-07-21T15:38:35.134Z,21.50
2018-07-21T15:41:03.289Z,21.40
2018-07-21T15:43:31.452Z,21.40
2018-07-21T15:45:59.619Z,21.50
2018-07-21T15:48:27.835Z,21.40
2018-07-21T15:50:56.000Z,21.30
2018-07-21T15:53:24.177Z,21.20
2018-07-21T15:55:52.366Z,21.10
2018-07-21T15:58:20.505Z,20.90
2018-07-21T16:00:48.680Z,20.70
2018-07-21T16:03:16.844Z,20.50
2018-07-21T16:05:45.075Z,20.30
2018-07-21T16:08:13.564Z,20.20
2018-07-21T16:10:41.730Z,20.10
2018-07-21T16:13:09.940Z,20.10
2018-07-21T16:15:38.123Z,19.90
2018-07-21T16:18:06.301Z,19.80
2018-07-21T16:20:34.453Z,19.70
2018-07-21T16:23:02.781Z,19.60
2018-07-21T16:25:30.931Z,19.50
2018-07-21T16:27:59.255Z,19.40
2018-07-21T16:30:27.352Z,19.20
2018-07-21T16:32:55.601Z,19.20
2018-07-21T16:35:23.984Z,19.00
2018-07-21T16:37:52.169Z,18.90
2018-07-21T16:40:20.427Z,18.80
2018-07-21T16:42:48.555Z,18.80
2018-07-21T16:45:16.729Z,18.70
2018-07-21T16:47:45.143Z,18.60
2018-07-21T16:50:13.762Z,18.60
2018-07-21T16:52:41.990Z,18.40
2018-07-21T16:55:10.132Z,18.30
2018-07-21T16:57:38.333Z,18.30
2018-07-21T17:00:06.540Z,18.30
2018-07-21T17:02:34.736Z,18.30
2018-07-21T17:05:02.977Z,18.20
2018-07-21T17:07:31.135Z,18.10
2018-07-21T17:09:59.305Z,18.10
2018-07-21T17:12:27.464Z,18.10
2018-07-21T17:14:55.628Z,18.10
2018-07-21T17:17:23.863Z,18.10
2018-07-21T17:19:52.125Z,18.10
2018-07-21T17:22:20.323Z,18.10
2018-07-21T17:24:48.544Z,18.10
2018-07-21T17:27:16.756Z,18.10
2018-07-21T17:29:44.917Z,18.10
2018-07-21T17:32:13.527Z,18.20
2018-07-21T17:34:41.800Z,18.20
2018-07-21T17:37:10.006Z,18.20
2018-07-21T17:39:38.390Z,18.20
2018-07-21T17:42:06.573Z,18.20
2018-07-21T17:44:34.729Z,18.10
2018-07-21T17:47:02.899Z,18.10
2018-07-21T17:49:31.043Z,18.10
2018-07-21T17:51:59.220Z,18.00
2018-07-21T17:54:27.676Z,18.00
2018-07-21T17:56:55.952Z,18.00
2018-07-21T17:59:24.113Z,18.00
2018-07-21T18:01:53.340Z,17.90
2018-07-21T18:04:21.506Z,17.90
2018-07-21T18:06:49.672Z,17.90
2018-07-21T18:09:17.830Z,17.90
2018-07-21T18:11:46.370Z,17.90
2018-07-21T18:14:14.686Z,17.80
2018-07-21T18:16:42.819Z,17.80
2018-07-21T18:19:11.048Z,17.70
2018-07-21T18:21:39.300Z,17.70
2018-07-21T18:24:07.520Z,17.70
2018-07-21T18:26:35.760Z,17.70
2018-07-21T18:29:04.044Z,17.70
2018-07-21T18:31:32.225Z,17.70
2018-07-21T18:34:00.386Z,17.60
2018-07-21T18:36:28.577Z,17.60
2018-07-21T18:38:56.728Z,17.60
2018-07-21T18:41:24.906Z,17.50
2018-07-21T18:43:53.087Z,17.50
2018-07-21T18:46:21.318Z,17.50
2018-07-21T18:48:49.566Z,17.50
2018-07-21T18:51:17.726Z,17.40
2018-07-21T18:53:45.879Z,17.40
2018-07-21T18:56:14.042Z,17.40
2018-07-21T18:58:42.469Z,17.40
2018-07-21T19:01:10.630Z,17.40
2018-07-21T19:03:38.838Z,17.40
2018-07-21T19:06:07.115Z,17.40
2018-07-21T19:08:40.528Z,17.40
2018-07-21T19:11:08.683Z,17.40
2018-07-21T19:13:36.896Z,17.30
2018-07-21T19:16:10.530Z,17.30
2018-07-21T19:18:38.709Z,17.30
2018-07-21T19:21:12.337Z,17.30
2018-07-21T19:23:40.485Z,17.20
2018-07-21T19:26:14.168Z,17.20
2018-07-21T19:28:42.331Z,17.10
2018-07-21T19:31:10.493Z,17.10
2018-07-21T19:33:38.634Z,17.10
2018-07-21T19:36:06.810Z,17.00
2018-07-21T19:38:35.019Z,17.00
2018-07-21T19:41:08.487Z,17.00
2018-07-21T19:43:36.994Z,16.90
2018-07-21T19:46:05.447Z,16.90
2018-07-21T19:48:33.743Z,16.90
2018-07-21T19:51:01.939Z,16.90
2018-07-21T19:53:30.290Z,16.90
2018-07-21T19:55:58.454Z,16.90
2018-07-21T19:58:26.637Z,16.80
2018-07-21T20:00:54.881Z,16.80
2018-07-21T20:03:23.053Z,16.80
2018-07-21T20:05:51.245Z,16.80
2018-07-21T20:08:19.467Z,16.80
2018-07-21T20:10:47.763Z,16.80
2018-07-21T20:13:15.983Z,16.80
2018-07-21T20:15:44.136Z,16.70
2018-07-21T20:18:12.342Z,16.70
2018-07-21T20:20:40.512Z,16.70
2018-07-21T20:23:08.668Z,16.60
2018-07-21T20:25:36.963Z,16.60
2018-07-21T20:28:05.202Z,16.70
2018-07-21T20:30:33.474Z,16.70
2018-07-21T20:33:01.755Z,16.70
2018-07-21T20:35:30.067Z,16.70
2018-07-21T20:37:58.604Z,16.70
2018-07-21T20:40:26.843Z,16.70
2018-07-21T20:42:55.134Z,16.70
2018-07-21T20:45:23.284Z,16.70
2018-07-21T20:47:51.547Z,16.70
2018-07-21T20:50:19.743Z,16.70
2018-07-21T20:52:47.912Z,16.70
2018-07-21T20:55:16.130Z,16.60
2018-07-21T20:57:44.455Z,16.60
2018-07-21T21:00:12.694Z,16.60
2018-07-21T21:02:40.832Z,16.60
2018-07-21T21:05:09.212Z,16.60
2018-07-21T21:07:37.372Z,16.60
2018-07-21T21:10:05.870Z,16.60
2018-07-21T21:12:34.199Z,16.60
2018-07-21T21:15:02.320Z,16.60
2018-07-21T21:17:30.461Z,16.60
2018-07-21T21:19:58.627Z,16.60
2018-07-21T21:22:26.844Z,16.60
2018-07-21T21:24:55.163Z,16.60
2018-07-21T21:27:23.354Z,16.60
2018-07-21T21:29:51.528Z,16.60
2018-07-21T21:32:19.702Z,16.60
2018-07-21T21:34:47.859Z,16.60
2018-07-21T21:37:16.031Z,16.60
2018-07-21T21:39:44.188Z,16.60
2018-07-21T21:42:12.414Z,16.60
2018-07-21T21:44:40.557Z,16.60
2018-07-21T21:47:08.889Z,16.60
2018-07-21T21:49:37.081Z,16.60
2018-07-21T21:52:05.327Z,16.60
2018-07-21T21:54:33.530Z,16.60
2018-07-21T21:57:01.751Z,16.70
2018-07-21T21:59:29.915Z,16.60
2018-07-21T22:01:58.143Z,16.60
2018-07-21T22:04:26.566Z,16.60
2018-07-21T22:06:54.751Z,16.60
2018-07-21T22:09:22.918Z,16.60
2018-07-21T22:11:51.080Z,16.60
2018-07-21T22:14:19.290Z,16.60
2018-07-21T22:16:47.435Z,16.60
2018-07-21T22:19:15.601Z,16.60
2018-07-21T22:21:43.762Z,16.60
2018-07-21T22:24:11.950Z,16.60
2018-07-21T22:26:40.095Z,16.60
2018-07-21T22:29:08.295Z,16.60
2018-07-21T22:31:36.431Z,16.60
2018-07-21T22:34:04.612Z,16.60
2018-07-21T22:36:32.780Z,16.60
2018-07-21T22:39:00.968Z,16.60
2018-07-21T22:41:29.132Z,16.60
2018-07-21T22:43:57.286Z,16.60
2018-07-21T22:46:25.484Z,16.60
2018-07-21T22:48:53.637Z,16.60
2018-07-21T22:51:21.976Z,16.60
2018-07-21T22:53:50.224Z,16.60
2018-07-21T22:56:18.388Z,16.60
2018-07-21T22:58:46.576Z,16.60
2018-07-21T23:01:14.833Z,16.60
2018-07-21T23:03:42.943Z,16.60
2018-07-21T23:06:11.327Z,16.60
2018-07-21T23:08:39.519Z,16.50
2018-07-21T23:11:07.703Z,16.50
2018-07-21T23:13:36.224Z,16.50
2018-07-21T23:16:04.446Z,16.50
2018-07-21T23:18:32.600Z,16.50
2018-07-21T23:21:00.754Z,16.50
2018-07-21T23:23:28.918Z,16.50
2018-07-21T23:25:57.103Z,16.50
2018-07-21T23:28:25.277Z,16.50
2018-07-21T23:30:53.439Z,16.50
2018-07-21T23:33:21.752Z,16.50
2018-07-21T23:35:49.930Z,16.50
2018-07-21T23:38:18.103Z,16.50
2018-07-21T23:40:46.276Z,16.50
2018-07-21T23:43:14.455Z,16.50
2018-07-21T23:45:42.620Z,16.50
2018-07-21T23:48:10.808Z,16.50
2018-07-21T23:50:38.987Z,16.50
2018-07-21T23:53:07.146Z,16.50
2018-07-21T23:55:35.327Z,16.60
2018-07-21T23:58:03.591Z,16.60
